Time;durP1;ratioP1;P1;durP2;ratioP2;P2;SDS_P1;SDS_P2;PMS_P1;PMS_P2;Temp;Humidity;BMP_temperature;BMP_pressure;BME280_temperature;BME280_humidity;BME280_pressure;Samples;Min_cycle;Max_cycle;Signal;HPM_P1;HPM_P2
2022/08/01 00:00:31;;;;;;;13.15;7.72;;;;;;;24.32;100.00;101525.34;5073753;28;20037;-53
2022/08/01 00:02:57;;;;;;;16.83;8.45;;;;;;;24.23;100.00;101526.19;5072731;28;20025;-49
2022/08/01 00:05:22;;;;;;;12.55;6.70;;;;;;;24.42;100.00;101530.00;5069902;28;20041;-47
2022/08/01 00:07:48;;;;;;;15.60;8.32;;;;;;;24.29;100.00;101528.63;5070595;28;20041;-49
2022/08/01 00:10:15;;;;;;;16.85;8.50;;;;;;;24.28;100.00;101537.13;5073240;28;20047;-51
2022/08/01 00:12:41;;;;;;;17.20;8.13;;;;;;;24.47;100.00;101538.22;5071348;28;20032;-50
2022/08/01 00:15:10;;;;;;;13.53;7.60;;;;;;;24.43;100.00;101537.13;5072466;28;20040;-52
2022/08/01 00:17:35;;;;;;;9.80;4.47;;;;;;;24.36;100.00;101527.56;5073003;28;20037;-49
2022/08/01 00:20:04;;;;;;;14.00;6.85;;;;;;;24.39;100.00;101537.94;5079830;28;20058;-51
2022/08/01 00:22:33;;;;;;;14.63;7.37;;;;;;;24.31;100.00;101531.91;5073446;28;20066;-47
2022/08/01 00:25:00;;;;;;;12.80;6.37;;;;;;;24.30;100.00;101537.66;5074587;28;20037;-50
2022/08/01 00:27:26;;;;;;;13.87;7.33;;;;;;;24.29;100.00;101536.03;5075054;28;20044;-50
2022/08/01 00:29:52;;;;;;;14.40;7.60;;;;;;;24.12;100.00;101539.81;5080455;28;20039;-48
2022/08/01 00:32:17;;;;;;;11.65;6.70;;;;;;;24.01;100.00;101535.41;5074584;28;20025;-48
2022/08/01 00:34:43;;;;;;;;;;;;;;;24.14;100.00;101540.38;5076782;28;20246;-50
2022/08/01 00:37:09;;;;;;;16.83;8.20;;;;;;;23.90;100.00;101535.38;5073816;28;19913;-50
2022/08/01 00:39:34;;;;;;;19.15;8.18;;;;;;;23.98;100.00;101541.38;5071432;28;20120;-50
2022/08/01 00:42:06;;;;;;;16.17;6.97;;;;;;;24.17;100.00;101539.81;5073013;28;20048;-52
2022/08/01 00:44:32;;;;;;;13.80;7.93;;;;;;;24.15;100.00;101539.28;5074179;28;20059;-52
2022/08/01 00:46:58;;;;;;;17.85;8.60;;;;;;;23.91;100.00;101537.00;5075621;28;20049;-50
2022/08/01 00:49:23;;;;;;;17.13;7.50;;;;;;;23.85;100.00;101537.25;5073727;28;20072;-51
2022/08/01 00:51:49;;;;;;;18.92;8.85;;;;;;;23.79;100.00;101536.44;5074838;28;20033;-52
2022/08/01 00:54:15;;;;;;;17.58;8.02;;;;;;;23.98;100.00;101541.38;5075373;28;20033;-46
2022/08/01 00:56:41;;;;;;;12.95;6.93;;;;;;;23.94;100.00;101540.28;5075766;28;20057;-50
2022/08/01 00:59:07;;;;;;;14.77;7.22;;;;;;;23.91;100.00;101542.47;5082969;28;20032;-54
2022/08/01 01:01:32;;;;;;;;;;;;;;;23.92;100.00;101538.66;5069395;28;20037;-52
2022/08/01 01:03:58;;;;;;;16.00;7.77;;;;;;;24.05;100.00;101542.81;5073697;28;19912;-50
2022/08/01 01:06:26;;;;;;;12.93;7.40;;;;;;;24.04;100.00;101543.09;5070221;28;20040;-51
2022/08/01 01:09:06;;;;;;;15.97;7.27;;;;;;;23.92;100.00;101537.84;5071598;28;20059;-50
2022/08/01 01:11:44;;;;;;;16.20;8.20;;;;;;;23.95;100.00;101537.31;5072672;28;20029;-50
2022/08/01 01:14:16;;;;;;;14.53;7.43;;;;;;;24.02;100.00;101537.88;5074430;28;20067;-49
2022/08/01 01:16:44;;;;;;;13.33;7.07;;;;;;;23.95;100.00;101537.31;5073174;28;20039;-51
2022/08/01 01:19:15;;;;;;;15.40;7.93;;;;;;;23.84;100.00;101536.44;5074078;28;20062;-49
2022/08/01 01:22:02;;;;;;;15.53;7.33;;;;;;;23.87;100.00;101535.91;5083179;28;20100;-49
2022/08/01 01:24:54;;;;;;;18.80;9.13;;;;;;;23.95;100.00;101542.75;5076880;28;20051;-50
2022/08/01 01:27:42;;;;;;;20.33;8.87;;;;;;;23.94;100.00;101541.13;5056663;28;20052;-53
2022/08/01 01:30:08;;;;;;;16.43;8.57;;;;;;;23.84;100.00;101541.91;5076710;28;20033;-50
2022/08/01 01:32:38;;;;;;;;;;;;;;;23.84;100.00;101535.63;5072775;28;20099;-50
2022/08/01 01:35:09;;;;;;;16.67;8.60;;;;;;;23.63;100.00;101536.38;5074980;28;19928;-48
2022/08/01 01:37:38;;;;;;;16.17;8.87;;;;;;;23.47;100.00;101530.03;5074537;28;20033;-47
2022/08/01 01:40:05;;;;;;;19.30;9.47;;;;;;;23.59;100.00;101523.53;5072895;28;20033;-51
2022/08/01 01:42:32;;;;;;;15.90;9.03;;;;;;;23.42;100.00;101532.75;5072976;28;20033;-50
2022/08/01 01:45:00;;;;;;;17.57;8.53;;;;;;;23.85;100.00;101538.09;5071541;28;20049;-48
2022/08/01 01:47:27;;;;;;;13.53;7.60;;;;;;;23.94;100.00;101538.38;5073010;28;20067;-50
2022/08/01 01:49:56;;;;;;;20.30;8.97;;;;;;;23.89;100.00;101538.38;5072601;28;20028;-47
2022/08/01 01:52:24;;;;;;;20.43;8.63;;;;;;;24.03;100.00;101533.25;5074534;28;20056;-49
2022/08/01 01:54:51;;;;;;;14.97;8.87;;;;;;;23.84;100.00;101532.88;5073039;28;20143;-49
2022/08/01 01:57:18;;;;;;;13.40;7.53;;;;;;;23.89;100.00;101539.19;5072520;28;20093;-51
2022/08/01 01:59:45;;;;;;;14.30;7.63;;;;;;;24.07;100.00;101537.09;5071139;28;20053;-49
2022/08/01 02:02:12;;;;;;;14.33;7.53;;;;;;;24.01;100.00;101535.41;5065502;28;20096;-48
2022/08/01 02:04:42;;;;;;;16.40;8.73;;;;;;;23.84;100.00;101531.00;5069111;28;20104;-47
2022/08/01 02:07:10;;;;;;;16.37;8.53;;;;;;;23.89;100.00;101531.00;5069983;28;20025;-48
2022/08/01 02:09:37;;;;;;;15.33;8.83;;;;;;;23.77;100.00;101533.16;5070629;28;20063;-50
2022/08/01 02:12:04;;;;;;;16.10;9.00;;;;;;;23.40;100.00;101529.44;5071644;28;20029;-49
2022/08/01 02:14:34;;;;;;;15.87;8.60;;;;;;;23.56;100.00;101529.50;5070503;28;20041;-47
2022/08/01 02:17:03;;;;;;;23.37;9.80;;;;;;;23.28;100.00;101535.09;5072958;28;20033;-49
2022/08/01 02:19:29;;;;;;;15.43;7.77;;;;;;;23.29;100.00;101527.75;5074886;28;20029;-48
2022/08/01 02:22:01;;;;;;;;;;;;;;;22.96;100.00;101532.47;5074517;28;20060;-53
2022/08/01 02:24:39;;;;;;;18.20;9.40;;;;;;;23.24;100.00;101531.25;5071736;28;19917;-49
2022/08/01 02:27:10;;;;;;;23.73;10.83;;;;;;;23.55;100.00;101533.34;5073118;28;20040;-51
2022/08/01 02:29:42;;;;;;;15.70;8.10;;;;;;;23.71;100.00;101536.94;5069930;28;20033;-49
2022/08/01 02:32:13;;;;;;;23.73;9.73;;;;;;;23.32;100.00;101536.25;5067260;28;20021;-47
2022/08/01 02:34:40;;;;;;;20.30;10.03;;;;;;;23.18;100.00;101548.69;5068584;28;20072;-48
2022/08/01 02:37:09;;;;;;;18.13;8.83;;;;;;;23.54;100.00;101540.72;5070536;28;20028;-50
2022/08/01 02:39:36;;;;;;;22.17;9.37;;;;;;;23.55;100.00;101544.25;5071336;28;20041;-48
2022/08/01 02:42:05;;;;;;;22.53;10.33;;;;;;;23.59;100.00;101550.81;5073638;28;20036;-51
2022/08/01 02:44:37;;;;;;;17.37;8.57;;;;;;;23.63;100.00;101557.38;5072535;28;20064;-51
2022/08/01 02:47:03;;;;;;;20.57;9.00;;;;;;;23.62;100.00;101553.84;5071279;28;20108;-50
2022/08/01 02:49:38;;;;;;;15.02;8.80;;;;;;;23.40;100.00;101550.47;5073339;28;20044;-50
2022/08/01 02:52:08;;;;;;;21.20;9.67;;;;;;;23.41;100.00;101554.84;5073398;28;20045;-49
2022/08/01 02:54:35;;;;;;;21.40;11.10;;;;;;;23.38;100.00;101549.91;5075258;28;20332;-50
2022/08/01 02:57:03;;;;;;;20.53;10.47;;;;;;;23.48;100.00;101549.94;5070441;28;20093;-48
2022/08/01 02:59:31;;;;;;;23.63;10.13;;;;;;;23.52;100.00;101542.06;5068668;28;20034;-49
2022/08/01 03:01:58;;;;;;;24.60;10.53;;;;;;;23.30;100.00;101541.16;5069841;28;20033;-48
2022/08/01 03:04:25;;;;;;;24.77;10.80;;;;;;;22.91;100.00;101535.97;5068568;28;20041;-48
2022/08/01 03:06:54;;;;;;;24.43;10.20;;;;;;;23.37;100.00;101540.09;5075244;28;20033;-48
2022/08/01 03:09:21;;;;;;;16.60;9.23;;;;;;;22.82;100.00;101542.97;5072613;28;20088;-49
2022/08/01 03:11:49;;;;;;;20.37;10.07;;;;;;;23.01;100.00;101541.47;5073441;28;20052;-48
2022/08/01 03:14:15;;;;;;;21.07;10.03;;;;;;;22.54;100.00;101544.94;5068403;28;20044;-51
2022/08/01 03:16:44;;;;;;;23.90;10.97;;;;;;;22.44;100.00;101538.28;5072852;28;20064;-45
2022/08/01 03:19:11;;;;;;;20.53;10.67;;;;;;;22.08;100.00;101546.09;5072704;28;20030;-51
2022/08/01 03:21:38;;;;;;;19.77;9.97;;;;;;;;;;5072829;28;20089;-50
2022/08/01 03:24:05;;;;;;;23.13;10.17;;;;;;;22.44;100.00;101551.91;5074020;28;20137;-48
2022/08/01 03:26:33;;;;;;;23.43;11.03;;;;;;;22.46;100.00;101552.50;5071020;28;20097;-49
2022/08/01 03:29:06;;;;;;;27.33;10.80;;;;;;;22.48;100.00;101560.41;5069954;28;20093;-49
2022/08/01 03:31:34;;;;;;;27.63;11.60;;;;;;;22.46;100.00;101563.41;5075570;28;20029;-51
2022/08/01 03:34:00;;;;;;;22.43;10.53;;;;;;;;;;5076581;28;20041;-49
2022/08/01 03:36:28;;;;;;;24.23;10.18;;;;;;;22.45;100.00;101553.56;5071355;28;20037;-52
2022/08/01 03:38:57;;;;;;;22.27;10.40;;;;;;;22.28;100.00;101550.13;5071173;28;20037;-50
2022/08/01 03:41:26;;;;;;;25.53;9.97;;;;;;;22.85;100.00;101547.91;5075798;28;20044;-49
2022/08/01 03:44:03;;;;;;;36.73;17.07;;;;;;;22.41;100.00;101546.97;5074607;28;20040;-52
2022/08/01 03:46:36;;;;;;;21.27;11.23;;;;;;;22.25;100.00;101556.09;5075013;28;20036;-51
2022/08/01 03:49:09;;;;;;;25.67;11.87;;;;;;;22.20;100.00;101546.78;5072508;28;20037;-52
2022/08/01 03:51:36;;;;;;;23.40;11.63;;;;;;;22.23;100.00;101545.44;5076332;28;20040;-48
2022/08/01 03:54:04;;;;;;;42.53;17.47;;;;;;;22.23;100.00;101544.63;5077415;28;20035;-48
2022/08/01 03:56:31;;;;;;;23.33;11.77;;;;;;;22.15;100.00;101545.91;5078916;28;20037;-48
2022/08/01 03:59:00;;;;;;;50.10;21.67;;;;;;;22.23;100.00;101547.34;5082662;28;20032;-49
2022/08/01 04:01:27;;;;;;;29.70;13.40;;;;;;;22.31;100.00;101552.31;5076255;28;20059;-48
2022/08/01 04:03:54;;;;;;;93.90;46.37;;;;;;;22.33;100.00;101555.59;5076741;28;20040;-51
2022/08/01 04:06:20;;;;;;;25.90;11.77;;;;;;;22.25;100.00;101554.16;5075210;28;20029;-48
2022/08/01 04:08:55;;;;;;;;;;;;;;;22.22;100.00;101551.16;5075374;28;20163;-49
2022/08/01 04:11:24;;;;;;;53.50;26.67;;;;;;;22.39;100.00;101557.31;5079023;28;19933;-50
2022/08/01 04:13:53;;;;;;;46.73;20.10;;;;;;;22.39;100.00;101562.78;5074135;28;20037;-51
2022/08/01 04:16:19;;;;;;;50.13;25.03;;;;;;;22.59;100.00;101555.88;5089477;28;20080;-50
2022/08/01 04:18:45;;;;;;;;;;;;;;;22.57;100.00;101555.31;5074447;28;20029;-48
2022/08/01 04:21:11;;;;;;;53.87;24.80;;;;;;;22.72;100.00;101563.63;5074881;28;19917;-48
2022/08/01 04:23:39;;;;;;;38.07;18.30;;;;;;;22.75;100.00;101560.38;5082444;28;20032;-53
2022/08/01 04:26:05;;;;;;;21.87;11.37;;;;;;;22.76;100.00;101562.00;5076264;28;20048;-49
2022/08/01 04:28:34;;;;;;;;;;;;;;;22.65;100.00;101563.03;5084063;28;20069;-49
2022/08/01 04:31:00;;;;;;;23.90;10.70;;;;;;;22.81;100.00;101565.84;5076054;28;19935;-48
2022/08/01 04:33:27;;;;;;;34.63;16.08;;;;;;;22.85;100.00;101559.63;5080187;28;20037;-48
2022/08/01 04:35:54;;;;;;;25.23;13.13;;;;;;;22.68;100.00;101564.41;5082387;28;20063;-51
2022/08/01 04:38:27;;;;;;;23.93;12.63;;;;;;;22.55;100.00;101571.94;5080855;28;20033;-50
2022/08/01 04:40:53;;;;;;;22.13;11.73;;;;;;;22.54;100.00;101570.28;5073770;28;20381;-51
2022/08/01 04:43:20;;;;;;;25.73;13.53;;;;;;;22.49;100.00;101568.34;5075586;28;20029;-49
2022/08/01 04:45:47;;;;;;;23.60;12.05;;;;;;;22.42;100.00;101578.59;5075824;28;20045;-52
2022/08/01 04:48:14;;;;;;;24.27;11.03;;;;;;;22.49;100.00;101576.50;5074409;28;20037;-47
2022/08/01 04:50:41;;;;;;;27.60;13.13;;;;;;;22.43;100.00;101577.53;5079464;28;20032;-49
2022/08/01 04:53:21;;;;;;;63.47;18.90;;;;;;;22.44;100.00;101581.88;5076423;28;20040;-48
2022/08/01 04:55:47;;;;;;;28.00;12.73;;;;;;;22.58;100.00;101590.50;5073678;28;20037;-50
2022/08/01 04:58:16;;;;;;;17.77;9.50;;;;;;;22.56;100.00;101594.56;5078302;28;20044;-54
2022/08/01 05:00:42;;;;;;;22.93;11.40;;;;;;;22.58;100.00;101593.22;5075078;28;20053;-47
2022/08/01 05:03:07;;;;;;;16.90;8.73;;;;;;;22.46;100.00;101601.56;5079223;28;20039;-51
2022/08/01 05:05:33;;;;;;;15.52;8.32;;;;;;;22.33;100.00;101596.47;5074587;28;20041;-49
2022/08/01 05:08:00;;;;;;;;;;;;;;;22.55;100.00;101601.09;5075833;28;20037;-59
2022/08/01 05:10:25;;;;;;;30.07;10.87;;;;;;;22.59;100.00;101605.78;5073994;28;19991;-51
2022/08/01 05:12:51;;;;;;;17.65;9.30;;;;;;;22.56;100.00;101600.84;5080984;28;20103;-53
2022/08/01 05:15:17;;;;;;;18.42;7.88;;;;;;;22.53;100.00;101600.53;5075048;28;20130;-48
2022/08/01 05:17:42;;;;;;;14.10;7.70;;;;;;;22.68;100.00;101605.28;5077737;28;20029;-49
2022/08/01 05:20:08;;;;;;;11.85;6.68;;;;;;;22.97;100.00;101605.81;5073675;28;20029;-46
2022/08/01 05:22:34;;;;;;;14.80;8.07;;;;;;;23.19;100.00;101611.19;5074559;28;20048;-50
2022/08/01 05:25:00;;;;;;;22.00;9.88;;;;;;;23.00;100.00;101599.03;5072962;28;20449;-52
2022/08/01 05:27:26;;;;;;;21.23;10.05;;;;;;;22.87;100.00;101594.84;5077095;28;20029;-51
2022/08/01 05:29:51;;;;;;;18.33;7.93;;;;;;;22.86;100.00;101598.66;5081342;28;20111;-50
2022/08/01 05:32:17;;;;;;;12.20;7.95;;;;;;;22.88;100.00;101602.75;5073903;28;20065;-53
2022/08/01 05:34:42;;;;;;;13.75;8.60;;;;;;;23.00;100.00;101605.28;5079021;28;20032;-52
2022/08/01 05:37:08;;;;;;;12.10;7.13;;;;;;;23.17;100.00;101609.78;5074818;28;20063;-50
2022/08/01 05:39:33;;;;;;;11.55;7.25;;;;;;;23.10;100.00;101611.91;5074485;28;20033;-50
2022/08/01 05:41:59;;;;;;;11.88;6.70;;;;;;;23.31;100.00;101615.63;5074252;28;20033;-52
2022/08/01 05:44:25;;;;;;;8.15;5.30;;;;;;;23.09;100.00;101607.56;5071863;28;20044;-52
2022/08/01 05:46:51;;;;;;;12.33;7.40;;;;;;;23.28;100.00;101608.78;5072791;28;20113;-49
2022/08/01 05:49:17;;;;;;;;;;;;;;;23.39;100.00;101611.59;5069263;28;20055;-48
2022/08/01 05:51:42;;;;;;;9.97;5.90;;;;;;;23.54;100.00;101611.69;5073327;28;19912;-51
2022/08/01 05:54:08;;;;;;;11.82;6.07;;;;;;;23.68;100.00;101613.94;5071358;28;20496;-49
2022/08/01 05:56:34;;;;;;;13.70;7.20;;;;;;;23.72;100.00;101615.03;5072897;28;20033;-48
2022/08/01 05:58:59;;;;;;;14.40;6.78;;;;;;;23.84;100.00;101615.66;5074656;28;20029;-52
2022/08/01 06:01:24;;;;;;;8.13;5.47;;;;;;;23.93;100.00;101615.97;5075311;28;20030;-51
2022/08/01 06:03:50;;;;;;;12.93;6.95;;;;;;;23.78;100.00;101628.44;5069667;28;20028;-50
2022/08/01 06:06:15;;;;;;;7.95;4.80;;;;;;;23.66;100.00;101616.94;5074886;28;20033;-51
2022/08/01 06:08:41;;;;;;;10.70;4.70;;;;;;;23.81;100.00;101624.38;5071259;28;20033;-49
2022/08/01 06:11:07;;;;;;;;;;;;;;;23.83;100.00;101624.94;5071560;28;20093;-49
2022/08/01 06:13:32;;;;;;;13.40;5.80;;;;;;;23.91;100.00;101618.94;5071560;28;19908;-50
2022/08/01 06:15:58;;;;;;;10.55;5.28;;;;;;;23.92;100.00;101617.84;5073059;28;20033;-50
2022/08/01 06:18:24;;;;;;;5.22;3.55;;;;;;;24.12;100.00;101616.31;5072161;28;20041;-47
2022/08/01 06:20:49;;;;;;;7.65;3.38;;;;;;;24.21;100.00;101619.34;5071438;28;20034;-51
2022/08/01 06:23:15;;;;;;;9.10;4.50;;;;;;;24.27;100.00;101621.00;5074839;28;20037;-49
2022/08/01 06:25:44;;;;;;;9.33;5.00;;;;;;;24.10;100.00;101618.50;5075407;28;20029;-53
2022/08/01 06:28:09;;;;;;;6.73;4.20;;;;;;;24.22;100.00;101621.00;5070708;28;20033;-49
2022/08/01 06:30:35;;;;;;;7.55;4.75;;;;;;;24.37;100.00;101631.16;5074824;28;20652;-51
2022/08/01 06:33:00;;;;;;;10.18;5.50;;;;;;;24.40;100.00;101629.78;5073173;28;20038;-50
2022/08/01 06:35:29;;;;;;;10.48;4.72;;;;;;;23.93;100.00;101624.16;5074007;28;20132;-52
2022/08/01 06:37:56;;;;;;;8.43;4.30;;;;;;;23.99;100.00;101633.16;5070985;28;20057;-53
2022/08/01 06:40:22;;;;;;;4.77;3.20;;;;;;;24.04;100.00;101628.59;5078827;28;20039;-50
2022/08/01 06:42:47;;;;;;;6.00;3.08;;;;;;;24.15;100.00;101623.97;5070272;28;20065;-49
2022/08/01 06:45:14;;;;;;;6.07;2.85;;;;;;;24.39;100.00;101636.34;5072703;28;20071;-53
2022/08/01 06:47:41;;;;;;;8.87;3.10;;;;;;;24.86;100.00;101642.72;5071632;28;20068;-52
2022/08/01 06:50:07;;;;;;;6.47;2.63;;;;;;;24.72;100.00;101635.03;5073697;28;20044;-50
2022/08/01 06:52:33;;;;;;;4.60;1.90;;;;;;;24.75;100.00;101639.16;5071724;28;20096;-50
2022/08/01 06:54:59;;;;;;;3.90;2.20;;;;;;;24.84;100.00;101650.38;5073393;28;20052;-51
2022/08/01 06:57:25;;;;;;;5.15;1.92;;;;;;;24.88;100.00;101648.72;5070385;28;20021;-49
2022/08/01 06:59:51;;;;;;;2.53;1.60;;;;;;;24.86;100.00;101642.72;5069113;28;20030;-49
2022/08/01 07:02:17;;;;;;;1.57;1.27;;;;;;;24.76;100.00;101649.84;5072649;28;20033;-52
2022/08/01 07:04:43;;;;;;;2.78;1.77;;;;;;;24.94;100.00;101650.41;5072837;28;20035;-48
2022/08/01 07:07:08;;;;;;;3.20;1.85;;;;;;;25.28;100.00;101651.75;5070389;28;20036;-49
2022/08/01 07:09:34;;;;;;;3.20;1.73;;;;;;;25.40;100.00;101651.47;5075598;28;20033;-48
2022/08/01 07:11:59;;;;;;;4.13;1.52;;;;;;;25.48;100.00;101650.91;5069258;28;20071;-51
2022/08/01 07:14:25;;;;;;;2.85;1.40;;;;;;;25.85;100.00;101657.09;5070789;28;21333;-49
2022/08/01 07:16:50;;;;;;;;;;;;;;;25.61;100.00;101655.81;5070823;28;20040;-48
2022/08/01 07:19:16;;;;;;;7.90;2.10;;;;;;;25.76;100.00;101660.44;5070473;28;19940;-47
2022/08/01 07:21:42;;;;;;;;;;;;;;;25.95;100.00;101659.00;5074255;28;20060;-51
2022/08/01 07:24:09;;;;;;;2.50;1.37;;;;;;;25.95;100.00;101665.31;5073150;28;19912;-53
2022/08/01 07:26:34;;;;;;;3.27;1.67;;;;;;;26.03;100.00;101669.34;5075143;28;20037;-51
2022/08/01 07:29:00;;;;;;;;;;;;;;;25.88;100.00;101679.28;5073569;28;20040;-54
2022/08/01 07:31:25;;;;;;;2.83;1.30;;;;;;;25.95;100.00;101676.25;5063115;28;19920;-52
2022/08/01 07:33:50;;;;;;;;;;;;;;;25.96;100.00;101688.03;5068511;28;20032;-50
2022/08/01 07:36:17;;;;;;;1.90;1.10;;;;;;;25.96;100.00;101685.28;5067681;28;19924;-49
2022/08/01 07:38:44;;;;;;;2.73;1.40;;;;;;;25.82;100.00;101685.88;5069795;28;20056;-57
2022/08/01 07:41:10;;;;;;;4.20;1.40;;;;;;;25.76;100.00;101687.00;5074608;28;20025;-51
2022/08/01 07:43:36;;;;;;;4.63;2.00;;;;;;;25.69;100.00;101686.47;5072802;28;20028;-48
2022/08/01 07:46:02;;;;;;;;;;;;;;;25.59;100.00;101693.59;5074760;28;20053;-50
2022/08/01 07:48:28;;;;;;;2.87;1.60;;;;;;;25.32;100.00;101694.69;5073449;28;19943;-48
2022/08/01 07:50:54;;;;;;;3.40;1.85;;;;;;;25.39;100.00;101696.34;5067350;28;20029;-52
2022/08/01 07:53:19;;;;;;;6.82;2.88;;;;;;;25.32;100.00;101699.38;5076981;28;20100;-51
2022/08/01 07:55:45;;;;;;;4.57;1.95;;;;;;;25.24;100.00;101692.53;5074572;28;20029;-51
2022/08/01 07:58:10;;;;;;;3.28;1.77;;;;;;;25.18;100.00;101697.16;5071888;28;20033;-48
2022/08/01 08:00:36;;;;;;;6.57;2.08;;;;;;;24.91;100.00;101698.25;5068370;28;20115;-51
2022/08/01 08:03:01;;;;;;;7.03;1.63;;;;;;;24.72;100.00;101700.69;5069349;28;20024;-47
2022/08/01 08:05:27;;;;;;;4.35;1.80;;;;;;;24.66;100.00;101707.19;5075391;28;20064;-53
2022/08/01 08:07:52;;;;;;;13.17;2.10;;;;;;;24.53;100.00;101699.53;5072595;28;20037;-49
2022/08/01 08:10:18;;;;;;;4.75;1.95;;;;;;;24.69;100.00;101706.69;5069560;28;20043;-50
2022/08/01 08:12:46;;;;;;;3.30;1.90;;;;;;;24.90;100.00;101713.03;5070886;28;20045;-53
2022/08/01 08:15:12;;;;;;;3.57;1.70;;;;;;;25.13;100.00;101704.56;5068177;28;20029;-51
2022/08/01 08:17:39;;;;;;;5.43;1.60;;;;;;;25.33;100.00;101706.47;5069649;28;20043;-50
2022/08/01 08:20:06;;;;;;;3.93;2.20;;;;;;;25.31;100.00;101704.00;5069083;28;20040;-49
2022/08/01 08:22:32;;;;;;;4.83;1.60;;;;;;;25.55;100.00;101706.19;5071391;28;20052;-55
2022/08/01 08:24:58;;;;;;;35.05;20.35;;;;;;;25.75;100.00;101712.75;5070597;28;20040;-48
2022/08/01 08:27:24;;;;;;;11.27;5.25;;;;;;;25.81;100.00;101706.16;5073464;28;20091;-52
2022/08/01 08:29:49;;;;;;;;;;;;;;;25.86;100.00;101708.06;5071024;28;20036;-52
2022/08/01 08:32:14;;;;;;;3.93;2.00;;;;;;;26.05;100.00;101709.09;5069148;28;19960;-50
2022/08/01 08:34:41;;;;;;;;;;;;;;;26.19;100.00;101703.84;5072600;28;20087;-51
2022/08/01 08:37:07;;;;;;;2.63;1.63;;;;;;;26.46;100.00;101710.06;5072408;28;19912;-49
2022/08/01 08:39:32;;;;;;;4.60;1.67;;;;;;;26.47;100.00;101715.22;5071684;28;20105;-52
2022/08/01 08:42:06;;;;;;;5.97;1.97;;;;;;;26.63;100.00;101710.47;5069602;28;20032;-53
2022/08/01 08:44:32;;;;;;;3.97;2.40;;;;;;;26.71;100.00;101720.03;5069007;28;20030;-52
2022/08/01 08:47:00;;;;;;;;;;;;;;;26.59;100.00;101727.81;5072429;28;20115;-53
2022/08/01 08:49:28;;;;;;;4.20;1.90;;;;;;;26.82;100.00;101722.72;5071755;28;19927;-51
2022/08/01 08:51:59;;;;;;;2.53;1.80;;;;;;;26.93;100.00;101729.78;5073991;28;20052;-51
2022/08/01 08:54:26;;;;;;;3.90;2.70;;;;;;;26.91;100.00;101723.78;5073399;28;20037;-47
2022/08/01 08:56:53;;;;;;;6.70;1.93;;;;;;;26.93;100.00;101724.31;5073643;28;20037;-51
2022/08/01 08:59:19;;;;;;;4.37;2.33;;;;;;;26.86;100.00;101723.81;5073608;28;20108;-50
2022/08/01 09:01:45;;;;;;;4.60;2.10;;;;;;;26.61;100.00;101733.81;5070900;28;20040;-48
2022/08/01 09:04:11;;;;;;;6.30;2.03;;;;;;;26.45;100.00;101733.91;5074279;28;20029;-50
2022/08/01 09:06:37;;;;;;;;;;;;;;;26.32;100.00;101737.28;5071814;28;20025;-47
2022/08/01 09:09:03;;;;;;;7.57;2.20;;;;;;;25.51;100.00;101742.66;5068607;28;19917;-49
2022/08/01 09:11:29;;;;;;;2.77;1.87;;;;;;;25.28;100.00;101748.34;5071632;28;20044;-51
2022/08/01 09:14:03;;;;;;;5.70;2.07;;;;;;;24.95;100.00;101741.47;5072493;28;20033;-53
2022/08/01 09:16:30;;;;;;;2.63;1.20;;;;;;;24.77;100.00;101747.22;5073230;28;20030;-54
2022/08/01 09:19:17;;;;;;;4.30;1.10;;;;;;;24.82;100.00;101745.56;5072999;28;20033;-50
2022/08/01 09:22:01;;;;;;;3.40;1.65;;;;;;;24.74;100.00;101758.66;5071375;28;20029;-51
2022/08/01 09:24:28;;;;;;;6.67;2.00;;;;;;;24.71;100.00;101761.94;5074845;28;20037;-52
2022/08/01 09:26:55;;;;;;;5.73;2.00;;;;;;;24.62;100.00;101766.25;5076529;28;20029;-47
2022/08/01 09:29:23;;;;;;;6.77;2.60;;;;;;;24.41;100.00;101765.38;5076214;28;20037;-48
2022/08/01 09:31:49;;;;;;;5.77;2.70;;;;;;;24.56;100.00;101770.06;5075116;28;20032;-48
2022/08/01 09:34:23;;;;;;;5.03;2.80;;;;;;;24.65;100.00;101773.94;5068230;28;20029;-49
2022/08/01 09:36:56;;;;;;;7.80;2.93;;;;;;;24.86;100.00;101768.53;5067564;28;20043;-49
2022/08/01 09:39:30;;;;;;;5.33;2.93;;;;;;;24.76;100.00;101772.06;5068211;28;20178;-51
2022/08/01 09:41:59;;;;;;;7.40;2.90;;;;;;;24.76;100.00;101774.81;5071085;28;20053;-51
2022/08/01 09:44:39;;;;;;;8.30;3.80;;;;;;;24.74;100.00;101774.22;5075585;28;20037;-49
2022/08/01 09:47:05;;;;;;;9.07;3.90;;;;;;;24.73;100.00;101769.84;5069793;28;20102;-52
2022/08/01 09:49:34;;;;;;;11.93;4.07;;;;;;;24.83;100.00;101785.50;5070314;28;20037;-49
2022/08/01 09:52:10;;;;;;;11.93;3.87;;;;;;;24.92;100.00;101783.91;5071619;28;20037;-49
2022/08/01 09:54:36;;;;;;;5.47;3.40;;;;;;;25.04;100.00;101769.97;5071298;28;20029;-52
2022/08/01 09:57:15;;;;;;;12.97;4.20;;;;;;;25.07;100.00;101777.63;5073711;28;20100;-46
2022/08/01 09:59:43;;;;;;;6.90;3.47;;;;;;;25.12;100.00;101782.28;5069860;28;20053;-50
2022/08/01 10:02:13;;;;;;;6.43;2.80;;;;;;;25.33;100.00;101783.94;5070035;28;20033;-51
2022/08/01 10:04:47;;;;;;;11.57;4.30;;;;;;;25.61;100.00;101780.97;5068266;28;20103;-50
2022/08/01 10:07:15;;;;;;;4.87;3.63;;;;;;;25.61;100.00;101781.81;5069474;28;20096;-54
2022/08/01 10:09:42;;;;;;;5.70;2.93;;;;;;;25.70;100.00;101787.53;5065427;28;20053;-47
2022/08/01 10:12:09;;;;;;;10.77;5.13;;;;;;;25.86;100.00;101793.81;5071736;28;20675;-49
2022/08/01 10:14:36;;;;;;;13.30;5.93;;;;;;;25.89;100.00;101792.44;5071272;28;20037;-47
2022/08/01 10:17:02;;;;;;;9.20;3.77;;;;;;;25.97;100.00;101799.28;5070473;28;20071;-50
2022/08/01 10:19:28;;;;;;;;;;;;;;;25.75;100.00;101800.41;5073067;28;20048;-54
2022/08/01 10:21:55;;;;;;;13.55;4.60;;;;;;;25.67;100.00;101793.56;5071136;28;19951;-52
2022/08/01 10:24:22;;;;;;;8.70;3.90;;;;;;;25.48;100.00;101804.25;5070891;28;20051;-53
2022/08/01 10:26:49;;;;;;;10.87;4.00;;;;;;;25.56;100.00;101784.53;5072951;28;20204;-54
2022/08/01 10:29:20;;;;;;;11.53;4.13;;;;;;;25.82;100.00;101800.94;5078929;28;20029;-54
2022/08/01 10:31:46;;;;;;;10.63;3.83;;;;;;;26.08;100.00;101791.84;5069990;28;20033;-52
2022/08/01 10:34:17;;;;;;;15.37;5.27;;;;;;;26.24;100.00;101793.50;5069095;28;20067;-52
2022/08/01 10:36:47;;;;;;;12.53;3.93;;;;;;;26.70;100.00;101797.94;5071098;28;20036;-50
2022/08/01 10:39:13;;;;;;;15.03;4.10;;;;;;;26.79;100.00;101798.19;5074146;28;20036;-52
2022/08/01 10:41:39;;;;;;;11.67;3.70;;;;;;;27.01;100.00;101797.81;5071662;28;20044;-50
2022/08/01 10:44:09;;;;;;;15.77;3.97;;;;;;;26.99;100.00;101793.72;5066836;28;20093;-56
2022/08/01 10:46:37;;;;;;;14.97;4.23;;;;;;;26.95;100.00;101787.97;5071844;28;20049;-53
2022/08/01 10:49:16;;;;;;;16.53;4.03;;;;;;;27.20;100.00;101786.16;5068485;28;20044;-55
2022/08/01 10:51:44;;;;;;;10.03;2.80;;;;;;;27.26;100.00;101779.53;5072870;28;20109;-54
2022/08/01 10:54:11;;;;;;;10.33;3.20;;;;;;;27.32;100.00;101783.88;5072182;28;20033;-52
2022/08/01 10:56:48;;;;;;;11.77;3.17;;;;;;;27.17;100.00;101786.72;5076241;28;20041;-50
2022/08/01 10:59:20;;;;;;;9.13;2.90;;;;;;;27.38;100.00;101786.56;5080353;28;20029;-53
2022/08/01 11:01:57;;;;;;;8.63;2.50;;;;;;;27.16;100.00;101787.81;5067369;28;20029;-51
2022/08/01 11:04:33;;;;;;;4.50;1.83;;;;;;;27.25;100.00;101790.78;5075599;28;20048;-48
2022/08/01 11:07:05;;;;;;;8.10;2.10;;;;;;;27.25;100.00;101791.63;5069636;28;20037;-54
2022/08/01 11:09:43;;;;;;;6.07;1.75;;;;;;;27.94;100.00;101792.69;5067916;28;20059;-51
2022/08/01 11:12:11;;;;;;;6.20;1.80;;;;;;;28.12;100.00;101794.66;5068786;28;20052;-52
2022/08/01 11:14:59;;;;;;;8.10;1.77;;;;;;;28.02;100.00;101797.53;5068474;28;20036;-50
2022/08/01 11:17:48;;;;;;;4.68;1.45;;;;;;;28.35;100.00;101795.00;5070477;28;20029;-51
2022/08/01 11:20:17;;;;;;;16.35;7.55;;;;;;;27.68;100.00;101798.41;5067703;28;20055;-50